createdAt,value
2022-10-20T00:01:25.680Z,101238.31
2022-10-20T00:03:53.800Z,101224.44
2022-10-20T00:06:26.235Z,101235.97
2022-10-20T00:08:54.804Z,101237.94
2022-10-20T00:11:23.247Z,101245.88
2022-10-20T00:13:52.151Z,101241.28
2022-10-20T00:16:20.591Z,101246.72
2022-10-20T00:18:47.928Z,101249.47
2022-10-20T00:21:17.623Z,101257.44
2022-10-20T00:23:44.755Z,101251.31
2022-10-20T00:26:14.912Z,101256.88
2022-10-20T00:28:42.407Z,101263.94
2022-10-20T00:31:09.595Z,101262.97
2022-10-20T00:33:36.423Z,101264.19
2022-10-20T00:36:05.612Z,101263.75
2022-10-20T00:38:33.174Z,101269.31
2022-10-20T00:41:00.321Z,101274.72
2022-10-20T00:43:52.555Z,101261.38
2022-10-20T00:46:36.856Z,101269.31
2022-10-20T00:49:23.483Z,101267.75
2022-10-20T00:51:52.877Z,101260.59
2022-10-20T00:54:25.752Z,101270.19
2022-10-20T00:56:55.944Z,101268.47
2022-10-20T00:59:33.088Z,101267.88
2022-10-20T01:02:02.365Z,101272.53
2022-10-20T01:04:31.258Z,101270.06
2022-10-20T01:06:59.196Z,101271.75
2022-10-20T01:09:26.753Z,101270.09
2022-10-20T01:12:11.502Z,101275.47
2022-10-20T01:15:07.772Z,101269.25
2022-10-20T01:18:00.779Z,101276.34
2022-10-20T01:20:33.419Z,101279.28
2022-10-20T01:23:28.440Z,101266.03
2022-10-20T01:26:07.908Z,101264.19
2022-10-20T01:28:55.979Z,101264.25
2022-10-20T01:31:31.046Z,101273.28
2022-10-20T01:34:22.892Z,101273.38
2022-10-20T01:36:59.124Z,101270.81
2022-10-20T01:39:33.383Z,101274.16
2022-10-20T01:42:07.265Z,101275.81
2022-10-20T01:44:35.898Z,101280.13
2022-10-20T01:47:03.819Z,101279.22
2022-10-20T01:49:30.932Z,101277.47
2022-10-20T01:51:57.828Z,101278.56
2022-10-20T01:54:30.130Z,101280.38
2022-10-20T01:56:56.821Z,101286.69
2022-10-20T01:59:36.228Z,101275.50
2022-10-20T02:02:19.055Z,101277.91
2022-10-20T02:05:04.460Z,101272.03
2022-10-20T02:07:33.585Z,101279.63
2022-10-20T02:10:12.030Z,101270.03
2022-10-20T02:12:41.927Z,101271.78
2022-10-20T02:15:12.323Z,101275.28
2022-10-20T02:17:41.163Z,101274.91
2022-10-20T02:20:09.708Z,101277.44
2022-10-20T02:22:37.984Z,101286.19
2022-10-20T02:25:05.697Z,101283.78
2022-10-20T02:27:36.008Z,101287.22
2022-10-20T02:30:08.359Z,101285.56
2022-10-20T02:32:37.531Z,101287.53
2022-10-20T02:35:08.121Z,101290.94
2022-10-20T02:37:35.153Z,101287.81
2022-10-20T02:40:02.496Z,101291.63
2022-10-20T02:42:29.259Z,101298.53
2022-10-20T02:44:56.212Z,101304.16
2022-10-20T02:47:22.931Z,101311.19
2022-10-20T02:49:49.964Z,101306.78
2022-10-20T02:52:16.739Z,101307.75
2022-10-20T02:54:43.638Z,101311.47
2022-10-20T02:57:10.429Z,101316.00
2022-10-20T02:59:37.477Z,101312.47
2022-10-20T03:02:04.319Z,101313.38
2022-10-20T03:04:31.298Z,101316.13
2022-10-20T03:06:58.028Z,101318.84
2022-10-20T03:09:25.000Z,101319.16
2022-10-20T03:11:51.795Z,101320.00
2022-10-20T03:14:18.696Z,101328.94
2022-10-20T03:16:45.439Z,101325.63
2022-10-20T03:19:12.374Z,101335.50
2022-10-20T03:21:39.117Z,101330.16
2022-10-20T03:24:06.224Z,101335.59
2022-10-20T03:26:33.195Z,101326.84
2022-10-20T03:29:00.143Z,101338.13
2022-10-20T03:31:26.990Z,101325.63
2022-10-20T03:33:53.931Z,101327.78
2022-10-20T03:36:20.712Z,101331.91
2022-10-20T03:38:47.628Z,101331.97
2022-10-20T03:41:14.403Z,101332.13
2022-10-20T03:43:41.750Z,101323.63
2022-10-20T03:46:11.310Z,101328.09
2022-10-20T03:48:39.730Z,101331.81
2022-10-20T03:51:07.526Z,101342.28
2022-10-20T03:53:34.616Z,101343.16
2022-10-20T03:56:06.907Z,101345.81
2022-10-20T03:58:33.942Z,101344.25
2022-10-20T04:01:01.083Z,101340.00
2022-10-20T04:03:28.152Z,101337.38
2022-10-20T04:05:59.690Z,101341.63
2022-10-20T04:08:27.088Z,101341.81
2022-10-20T04:10:53.867Z,101336.72
2022-10-20T04:13:20.776Z,101343.72
2022-10-20T04:15:47.514Z,101339.34
2022-10-20T04:18:14.431Z,101338.47
2022-10-20T04:20:43.669Z,101340.41
2022-10-20T04:23:12.150Z,101336.84
2022-10-20T04:25:48.835Z,101337.81
2022-10-20T04:28:17.501Z,101335.00
2022-10-20T04:30:44.916Z,101335.91
2022-10-20T04:33:12.748Z,101342.22
2022-10-20T04:35:40.489Z,101341.63
2022-10-20T04:38:07.923Z,101335.44
2022-10-20T04:40:34.711Z,101330.81
2022-10-20T04:43:01.795Z,101337.25
2022-10-20T04:45:28.754Z,101333.00
2022-10-20T04:47:55.778Z,101342.44
2022-10-20T04:50:22.495Z,101334.00
2022-10-20T04:52:50.893Z,101334.84
2022-10-20T04:55:17.697Z,101340.06
2022-10-20T04:57:44.769Z,101341.72
2022-10-20T05:00:11.986Z,101340.59
2022-10-20T05:02:38.952Z,101337.03
2022-10-20T05:05:06.221Z,101348.63
2022-10-20T05:07:33.422Z,101354.84
2022-10-20T05:10:00.386Z,101353.97
2022-10-20T05:12:28.430Z,101354.84
2022-10-20T05:14:55.295Z,101359.09
2022-10-20T05:17:22.292Z,101365.13
2022-10-20T05:19:49.024Z,101366.63
2022-10-20T05:22:15.984Z,101373.56
2022-10-20T05:24:42.754Z,101375.59
2022-10-20T05:27:09.651Z,101381.69
2022-10-20T05:29:36.395Z,101383.19
2022-10-20T05:32:03.350Z,101383.50
2022-10-20T05:34:30.168Z,101388.56
2022-10-20T05:36:57.105Z,101395.41
2022-10-20T05:39:23.866Z,101404.25
2022-10-20T05:41:50.906Z,101401.72
2022-10-20T05:44:17.634Z,101403.22
2022-10-20T05:46:44.538Z,101401.50
2022-10-20T05:49:14.321Z,101413.97
2022-10-20T05:51:41.666Z,101405.56
2022-10-20T05:54:11.871Z,101412.31
2022-10-20T05:56:39.408Z,101422.19
2022-10-20T05:59:06.177Z,101426.28
2022-10-20T06:01:47.503Z,101425.28
2022-10-20T06:04:24.139Z,101430.34
2022-10-20T06:06:54.866Z,101429.28
2022-10-20T06:09:22.843Z,101426.63
2022-10-20T06:11:51.457Z,101429.03
2022-10-20T06:14:18.648Z,101437.59
2022-10-20T06:16:46.256Z,101441.94
2022-10-20T06:19:13.689Z,101439.91
2022-10-20T06:21:40.666Z,101452.84
2022-10-20T06:24:07.644Z,101454.41
2022-10-20T06:26:36.728Z,101459.47
2022-10-20T06:29:05.498Z,101462.22
2022-10-20T06:31:35.595Z,101463.69
2022-10-20T06:34:13.807Z,101467.94
2022-10-20T06:36:42.354Z,101472.03
2022-10-20T06:39:13.504Z,101470.09
2022-10-20T06:41:42.143Z,101469.88
2022-10-20T06:44:09.015Z,101466.09
2022-10-20T06:46:37.181Z,101467.59
2022-10-20T06:49:06.302Z,101469.25
2022-10-20T06:51:34.462Z,101471.63
2022-10-20T06:54:02.173Z,101468.72
2022-10-20T06:56:31.406Z,101471.00
2022-10-20T06:59:00.124Z,101474.19
2022-10-20T07:01:37.966Z,101474.84
2022-10-20T07:04:07.714Z,101475.09
2022-10-20T07:06:43.015Z,101480.13
2022-10-20T07:09:15.490Z,101484.78
2022-10-20T07:11:42.547Z,101490.50
2022-10-20T07:14:11.689Z,101490.69
2022-10-20T07:16:38.881Z,101496.94
2022-10-20T07:19:05.787Z,101494.44
2022-10-20T07:21:36.594Z,101497.47
2022-10-20T07:24:06.688Z,101491.53
2022-10-20T07:26:36.659Z,101486.63
2022-10-20T07:29:04.894Z,101476.56
2022-10-20T07:31:51.467Z,101482.91
2022-10-20T07:34:25.635Z,101482.06
2022-10-20T07:36:54.466Z,101485.88
2022-10-20T07:39:21.652Z,101480.81
2022-10-20T07:41:48.833Z,101483.75
2022-10-20T07:44:16.511Z,101479.09
2022-10-20T07:46:43.727Z,101478.22
2022-10-20T07:49:42.826Z,101475.44
2022-10-20T07:51:57.586Z,101485.03
2022-10-20T07:54:24.438Z,101484.91
2022-10-20T07:56:51.356Z,101487.31
2022-10-20T07:59:19.165Z,101489.19
2022-10-20T08:01:46.556Z,101489.16
2022-10-20T08:04:13.472Z,101489.81
2022-10-20T08:06:40.518Z,101489.13
2022-10-20T08:09:07.765Z,101487.81
2022-10-20T08:11:35.715Z,101480.00
2022-10-20T08:14:02.683Z,101486.09
2022-10-20T08:16:32.535Z,101486.78
2022-10-20T08:21:40.133Z,101488.50
2022-10-20T08:24:06.846Z,101487.28
2022-10-20T08:26:33.813Z,101488.63
2022-10-20T08:29:00.679Z,101493.88
2022-10-20T08:31:27.606Z,101494.34
2022-10-20T08:33:54.376Z,101493.59
2022-10-20T08:36:21.445Z,101497.91
2022-10-20T08:38:48.868Z,101495.50
2022-10-20T08:41:19.567Z,101497.56
2022-10-20T08:43:48.824Z,101496.63
2022-10-20T08:48:47.887Z,101493.59
2022-10-20T08:51:27.004Z,101509.63
2022-10-20T08:53:56.678Z,101501.69
2022-10-20T08:56:25.882Z,101493.66
2022-10-20T08:58:53.072Z,101503.50
2022-10-20T09:01:25.015Z,101506.50
2022-10-20T09:03:58.742Z,101505.44
2022-10-20T09:06:25.977Z,101504.66
2022-10-20T09:08:54.759Z,101512.25
2022-10-20T09:11:25.827Z,101501.84
2022-10-20T09:13:53.843Z,101504.34
2022-10-20T09:16:41.972Z,101499.34
2022-10-20T09:19:22.947Z,101499.25
2022-10-20T09:21:53.572Z,101499.47
2022-10-20T09:24:25.567Z,101498.75
2022-10-20T09:27:00.409Z,101496.81
2022-10-20T09:29:41.315Z,101500.38
2022-10-20T09:32:52.904Z,101496.44
2022-10-20T09:35:35.987Z,101493.66
2022-10-20T09:38:25.057Z,101493.09
2022-10-20T09:41:07.060Z,101503.41
2022-10-20T09:43:34.470Z,101498.34
2022-10-20T09:46:06.944Z,101498.50
2022-10-20T09:48:40.768Z,101501.41
2022-10-20T09:53:51.229Z,101492.59
2022-10-20T09:56:35.675Z,101484.88
2022-10-20T09:59:08.064Z,101485.84
2022-10-20T10:01:34.925Z,101495.84
2022-10-20T10:04:02.220Z,101487.44
2022-10-20T10:06:32.039Z,101491.44
2022-10-20T10:09:01.187Z,101487.97
2022-10-20T10:11:36.053Z,101478.81
2022-10-20T10:14:03.791Z,101475.84
2022-10-20T10:16:41.669Z,101479.72
2022-10-20T10:19:18.955Z,101489.28
2022-10-20T10:21:51.990Z,101478.16
2022-10-20T10:24:35.575Z,101468.94
2022-10-20T10:27:02.594Z,101467.41
2022-10-20T10:29:36.606Z,101466.97
2022-10-20T10:32:22.971Z,101458.84
2022-10-20T10:35:08.591Z,101452.00
2022-10-20T10:37:38.613Z,101458.13
2022-10-20T10:40:15.577Z,101465.47
2022-10-20T10:42:54.260Z,101459.56
2022-10-20T10:45:46.429Z,101449.72
2022-10-20T10:48:18.995Z,101452.19
2022-10-20T10:50:58.948Z,101440.91
2022-10-20T10:53:58.101Z,101442.25
2022-10-20T10:56:31.113Z,101442.88
2022-10-20T10:59:04.604Z,101438.75
2022-10-20T11:01:57.876Z,101430.41
2022-10-20T11:04:56.248Z,101430.13
2022-10-20T11:07:32.317Z,101423.69
2022-10-20T11:10:05.164Z,101423.09
2022-10-20T11:12:50.731Z,101399.63
2022-10-20T11:15:25.947Z,101408.72
2022-10-20T11:18:11.858Z,101406.25
2022-10-20T11:20:50.646Z,101403.47
2022-10-20T11:23:46.307Z,101398.22
2022-10-20T11:26:32.845Z,101396.81
2022-10-20T11:29:03.092Z,101393.91
2022-10-20T11:31:36.631Z,101397.47
2022-10-20T11:34:16.781Z,101384.06
2022-10-20T11:36:50.610Z,101374.34
2022-10-20T11:39:34.232Z,101366.31
2022-10-20T11:42:27.892Z,101366.63
2022-10-20T11:44:56.844Z,101374.56
2022-10-20T11:47:36.490Z,101366.00
2022-10-20T11:50:06.834Z,101363.97
2022-10-20T11:52:45.624Z,101366.94
2022-10-20T11:55:29.130Z,101363.41
2022-10-20T11:58:10.600Z,101365.97
2022-10-20T12:00:58.899Z,101364.44
2022-10-20T12:03:46.390Z,101355.31
2022-10-20T12:06:51.448Z,101362.75
2022-10-20T12:09:21.133Z,101360.91
2022-10-20T12:12:05.550Z,101360.50
2022-10-20T12:14:38.807Z,101353.63
2022-10-20T12:17:12.851Z,101350.72
2022-10-20T12:19:39.972Z,101351.59
2022-10-20T12:22:29.475Z,101341.72
2022-10-20T12:24:56.230Z,101335.91
2022-10-20T12:27:29.608Z,101340.75
2022-10-20T12:30:02.441Z,101352.28
2022-10-20T12:32:29.353Z,101335.66
2022-10-20T12:35:02.423Z,101332.69
2022-10-20T12:37:36.726Z,101332.00
2022-10-20T12:40:06.641Z,101333.28
2022-10-20T12:42:40.282Z,101330.53
2022-10-20T12:45:33.090Z,101321.53
2022-10-20T12:48:02.471Z,101318.25
2022-10-20T12:50:43.606Z,101319.19
2022-10-20T12:53:22.118Z,101321.84
2022-10-20T12:56:01.290Z,101313.72
2022-10-20T12:58:31.117Z,101310.38
2022-10-20T13:00:58.593Z,101305.66
2022-10-20T13:03:47.045Z,101297.47
2022-10-20T13:06:23.039Z,101297.31
2022-10-20T13:09:04.969Z,101307.97
2022-10-20T13:11:36.121Z,101304.50
2022-10-20T13:14:20.703Z,101302.22
2022-10-20T13:17:01.253Z,101304.50
2022-10-20T13:19:45.748Z,101297.09
2022-10-20T13:22:38.064Z,101300.34
2022-10-20T13:25:16.726Z,101292.16
2022-10-20T13:27:44.191Z,101300.03
2022-10-20T13:30:19.984Z,101293.50
2022-10-20T13:33:11.318Z,101298.28
2022-10-20T13:36:05.251Z,101290.31
2022-10-20T13:38:44.355Z,101286.66
2022-10-20T13:41:38.414Z,101298.19
2022-10-20T13:44:16.572Z,101289.22
2022-10-20T13:47:14.659Z,101291.53
2022-10-20T13:49:53.749Z,101283.06
2022-10-20T13:52:21.596Z,101295.03
2022-10-20T13:54:50.887Z,101288.00
2022-10-20T13:57:34.995Z,101290.31
2022-10-20T14:00:16.453Z,101286.22
2022-10-20T14:02:53.810Z,101280.09
2022-10-20T14:05:22.886Z,101277.53
2022-10-20T14:07:53.272Z,101270.63
2022-10-20T14:10:26.454Z,101275.50
2022-10-20T14:12:54.460Z,101274.44
2022-10-20T14:15:28.397Z,101273.94
2022-10-20T14:17:57.165Z,101264.25
2022-10-20T14:20:24.807Z,101271.69
2022-10-20T14:22:53.792Z,101262.66
2022-10-20T14:25:22.099Z,101269.56
2022-10-20T14:27:51.455Z,101269.56
2022-10-20T14:30:18.855Z,101272.22
2022-10-20T14:32:47.932Z,101267.47
2022-10-20T14:35:39.187Z,101274.38
2022-10-20T14:38:15.443Z,101262.19
2022-10-20T14:40:53.762Z,101267.75
2022-10-20T14:43:39.190Z,101254.94
2022-10-20T14:46:09.981Z,101260.81
2022-10-20T14:48:48.037Z,101262.03
2022-10-20T14:51:45.198Z,101255.28
2022-10-20T14:54:21.291Z,101256.50
2022-10-20T14:56:52.331Z,101254.59
2022-10-20T14:59:22.299Z,101254.09
2022-10-20T15:02:09.044Z,101255.06
2022-10-20T15:04:37.824Z,101252.50
2022-10-20T15:07:18.515Z,101253.06
2022-10-20T15:09:54.830Z,101252.31
2022-10-20T15:12:33.457Z,101251.16
2022-10-20T15:15:36.015Z,101239.97
2022-10-20T15:18:18.497Z,101240.34
2022-10-20T15:20:49.064Z,101242.50
2022-10-20T15:23:21.866Z,101243.53
2022-10-20T15:25:51.545Z,101239.72
2022-10-20T15:28:39.469Z,101232.38
2022-10-20T15:31:26.506Z,101229.53
2022-10-20T15:33:54.842Z,101229.06
2022-10-20T15:36:29.430Z,101234.75
2022-10-20T15:38:56.866Z,101225.72
2022-10-20T15:41:34.411Z,101235.19
2022-10-20T15:44:21.301Z,101228.97
2022-10-20T15:46:50.537Z,101235.53
2022-10-20T15:49:17.495Z,101227.50
2022-10-20T15:51:46.307Z,101226.72
2022-10-20T15:54:15.335Z,101229.09
2022-10-20T15:56:42.277Z,101228.53
2022-10-20T15:59:09.244Z,101224.22
2022-10-20T16:01:36.635Z,101224.66
2022-10-20T16:04:17.291Z,101237.09
2022-10-20T16:06:44.257Z,101225.03
2022-10-20T16:09:14.971Z,101231.59
2022-10-20T16:11:43.092Z,101239.13
2022-10-20T16:14:10.675Z,101239.63
2022-10-20T16:16:37.549Z,101246.94
2022-10-20T16:19:05.355Z,101244.75
2022-10-20T16:21:33.417Z,101247.84
2022-10-20T16:24:01.129Z,101253.53
2022-10-20T16:26:27.994Z,101249.63
2022-10-20T16:28:55.004Z,101241.31
2022-10-20T16:31:21.814Z,101243.63
2022-10-20T16:33:48.908Z,101248.50
2022-10-20T16:36:17.335Z,101251.94
2022-10-20T16:38:44.347Z,101244.25
2022-10-20T16:41:13.679Z,101248.50
2022-10-20T16:43:45.317Z,101249.72
2022-10-20T16:46:14.271Z,101252.84
2022-10-20T16:48:42.775Z,101250.13
2022-10-20T16:51:12.211Z,101250.59
2022-10-20T16:53:39.364Z,101251.47
2022-10-20T16:56:07.382Z,101260.84
2022-10-20T16:58:34.422Z,101247.13
2022-10-20T17:01:06.566Z,101237.75
2022-10-20T17:03:34.925Z,101244.91
2022-10-20T17:06:05.030Z,101243.56
2022-10-20T17:08:33.296Z,101242.34
2022-10-20T17:11:02.903Z,101243.47
2022-10-20T17:13:31.426Z,101247.47
2022-10-20T17:16:05.317Z,101250.44
2022-10-20T17:18:32.264Z,101243.13
2022-10-20T17:20:59.127Z,101250.34
2022-10-20T17:23:26.255Z,101248.19
2022-10-20T17:25:58.165Z,101251.66
2022-10-20T17:28:25.123Z,101251.31
2022-10-20T17:30:53.120Z,101251.38
2022-10-20T17:33:24.197Z,101248.00
2022-10-20T17:35:50.974Z,101254.13
2022-10-20T17:38:17.925Z,101245.25
2022-10-20T17:40:44.709Z,101251.81
2022-10-20T17:43:11.682Z,101254.16
2022-10-20T17:45:38.542Z,101245.69
2022-10-20T17:48:05.966Z,101255.84
2022-10-20T17:50:33.390Z,101265.16
2022-10-20T17:53:01.356Z,101265.91
2022-10-20T17:55:29.125Z,101273.13
2022-10-20T17:58:02.407Z,101265.84
2022-10-20T18:00:51.562Z,101266.38
2022-10-20T18:03:18.723Z,101264.81
2022-10-20T18:05:45.485Z,101258.09
2022-10-20T18:08:12.442Z,101260.47
2022-10-20T18:10:43.804Z,101247.94
2022-10-20T18:13:11.162Z,101255.38
2022-10-20T18:15:43.756Z,101257.47
2022-10-20T18:18:10.813Z,101252.69
2022-10-20T18:20:37.558Z,101257.34
2022-10-20T18:23:04.655Z,101258.41
2022-10-20T18:25:31.407Z,101250.63
2022-10-20T18:27:58.371Z,101258.56
2022-10-20T18:30:25.179Z,101249.09
2022-10-20T18:32:52.135Z,101255.31
2022-10-20T18:37:50.006Z,101259.03
2022-10-20T18:40:16.880Z,101252.69
2022-10-20T18:42:43.805Z,101251.94
2022-10-20T18:45:10.636Z,101255.63
2022-10-20T18:47:37.906Z,101260.94
2022-10-20T18:50:05.248Z,101254.47
2022-10-20T18:52:32.218Z,101258.25
2022-10-20T18:54:58.970Z,101260.03
2022-10-20T18:57:25.909Z,101249.44
2022-10-20T18:59:52.735Z,101257.63
2022-10-20T19:02:19.749Z,101257.69
2022-10-20T19:04:46.486Z,101253.03
2022-10-20T19:07:13.437Z,101253.38
2022-10-20T19:09:40.160Z,101259.34
2022-10-20T19:12:09.701Z,101259.88
2022-10-20T19:14:37.432Z,101262.31
2022-10-20T19:17:04.367Z,101262.44
2022-10-20T19:19:31.093Z,101260.66
2022-10-20T19:21:58.021Z,101249.66
2022-10-20T19:24:25.170Z,101260.81
2022-10-20T19:27:21.017Z,101266.25
2022-10-20T19:29:42.735Z,101270.81
2022-10-20T19:32:09.764Z,101267.28
2022-10-20T19:34:39.089Z,101261.38
2022-10-20T19:37:07.828Z,101263.19
2022-10-20T19:39:38.204Z,101269.59
2022-10-20T19:42:07.306Z,101260.13
2022-10-20T19:44:34.597Z,101262.69
2022-10-20T19:47:02.573Z,101268.91
2022-10-20T19:49:29.450Z,101266.41
2022-10-20T19:51:56.622Z,101269.03
2022-10-20T19:54:23.620Z,101265.34
2022-10-20T19:56:50.632Z,101272.69
2022-10-20T19:59:17.610Z,101268.41
2022-10-20T20:01:44.647Z,101271.03
2022-10-20T20:04:11.582Z,101261.47
2022-10-20T20:06:38.553Z,101267.63
2022-10-20T20:09:08.637Z,101265.94
2022-10-20T20:11:37.682Z,101271.97
2022-10-20T20:14:10.325Z,101270.44
2022-10-20T20:16:38.025Z,101266.50
2022-10-20T20:19:05.107Z,101275.09
2022-10-20T20:21:32.243Z,101274.50
2022-10-20T20:24:01.554Z,101266.31
2022-10-20T20:26:30.245Z,101274.28
2022-10-20T20:28:57.701Z,101268.59
2022-10-20T20:31:25.767Z,101268.47
2022-10-20T20:33:53.494Z,101266.66
2022-10-20T20:36:21.106Z,101267.38
2022-10-20T20:38:48.141Z,101271.16
2022-10-20T20:41:17.789Z,101273.91
2022-10-20T20:43:45.387Z,101270.41
2022-10-20T20:46:15.551Z,101258.84
2022-10-20T20:48:42.909Z,101271.94
2022-10-20T20:51:10.091Z,101260.91
2022-10-20T20:53:39.388Z,101270.31
2022-10-20T20:56:09.572Z,101264.25
2022-10-20T20:58:36.901Z,101266.16
2022-10-20T21:01:10.726Z,101258.50
2022-10-20T21:03:37.544Z,101260.34
2022-10-20T21:06:06.796Z,101268.31
2022-10-20T21:08:34.773Z,101270.84
2022-10-20T21:11:10.152Z,101263.88
2022-10-20T21:13:37.763Z,101271.13
2022-10-20T21:16:25.802Z,101266.00
2022-10-20T21:18:55.876Z,101266.69
2022-10-20T21:21:25.462Z,101264.84
2022-10-20T21:23:53.480Z,101267.06
2022-10-20T21:26:21.767Z,101263.09
2022-10-20T21:28:49.547Z,101263.13
2022-10-20T21:31:22.119Z,101263.44
2022-10-20T21:33:54.288Z,101262.44
2022-10-20T21:36:22.349Z,101264.19
2022-10-20T21:38:49.232Z,101263.38
2022-10-20T21:41:27.121Z,101266.97
2022-10-20T21:43:56.502Z,101267.72
2022-10-20T21:46:29.418Z,101263.75
2022-10-20T21:49:00.189Z,101266.06
2022-10-20T21:51:30.672Z,101251.47
2022-10-20T21:53:59.219Z,101258.31
2022-10-20T21:56:27.367Z,101252.25
2022-10-20T21:58:54.940Z,101257.41
2022-10-20T22:01:24.384Z,101261.88
2022-10-20T22:03:53.583Z,101255.81
2022-10-20T22:06:26.045Z,101261.63
2022-10-20T22:08:56.042Z,101262.16
2022-10-20T22:11:32.524Z,101258.78
2022-10-20T22:13:59.459Z,101252.06
2022-10-20T22:16:29.293Z,101258.13
2022-10-20T22:19:05.148Z,101250.94
2022-10-20T22:21:36.984Z,101249.16
2022-10-20T22:24:04.192Z,101260.53
2022-10-20T22:26:32.549Z,101263.44
2022-10-20T22:29:00.231Z,101265.75
2022-10-20T22:31:27.783Z,101267.72
2022-10-20T22:33:56.233Z,101272.06
2022-10-20T22:36:23.803Z,101263.41
2022-10-20T22:38:50.694Z,101266.81
2022-10-20T22:41:17.863Z,101269.66
2022-10-20T22:43:44.658Z,101268.56
2022-10-20T22:46:11.670Z,101265.91
2022-10-20T22:48:38.538Z,101267.13
2022-10-20T22:51:07.000Z,101263.75
2022-10-20T22:53:34.105Z,101265.63
2022-10-20T22:56:08.474Z,101265.63
2022-10-20T22:58:35.624Z,101263.28
2022-10-20T23:01:12.257Z,101268.72
2022-10-20T23:03:39.114Z,101275.81
2022-10-20T23:06:13.208Z,101265.03
2022-10-20T23:08:45.901Z,101271.47
2022-10-20T23:11:14.698Z,101267.16
2022-10-20T23:13:41.557Z,101255.53
2022-10-20T23:16:09.062Z,101250.84
2022-10-20T23:18:36.581Z,101246.13
2022-10-20T23:21:04.053Z,101240.25
2022-10-20T23:23:31.125Z,101243.03
2022-10-20T23:26:00.858Z,101245.69
2022-10-20T23:28:30.500Z,101244.78
2022-10-20T23:31:15.890Z,101243.78
2022-10-20T23:33:44.140Z,101248.31
2022-10-20T23:36:12.270Z,101250.31
2022-10-20T23:38:39.092Z,101247.72
2022-10-20T23:41:06.650Z,101246.72
2022-10-20T23:43:33.542Z,101251.25
2022-10-20T23:46:01.041Z,101250.25
2022-10-20T23:48:28.075Z,101253.16
2022-10-20T23:50:55.200Z,101253.09
2022-10-20T23:53:22.127Z,101247.59
2022-10-20T23:55:49.068Z,101246.06
2022-10-20T23:58:16.138Z,101244.75
